createdAt,value
2023-03-22T00:00:40.049Z,67.77
2023-03-22T00:01:39.662Z,67.40
2023-03-22T00:02:39.730Z,67.05
2023-03-22T00:03:39.716Z,66.96
2023-03-22T00:04:39.674Z,66.67
2023-03-22T00:05:39.688Z,66.39
2023-03-22T00:06:39.691Z,66.39
2023-03-22T00:07:39.707Z,66.20
2023-03-22T00:08:39.707Z,66.20
2023-03-22T00:09:39.720Z,66.39
2023-03-22T00:10:40.115Z,66.48
2023-03-22T00:11:39.740Z,66.48
2023-03-22T00:12:39.742Z,66.48
2023-03-22T00:13:39.754Z,66.48
2023-03-22T00:14:39.772Z,66.48
2023-03-22T00:15:39.894Z,66.29
2023-03-22T00:16:39.771Z,66.48
2023-03-22T00:17:39.783Z,66.39
2023-03-22T00:18:39.788Z,66.93
2023-03-22T00:19:39.825Z,66.86
2023-03-22T00:20:39.953Z,66.93
2023-03-22T00:21:39.828Z,67.40
2023-03-22T00:22:39.819Z,67.58
2023-03-22T00:23:39.831Z,67.77
2023-03-22T00:24:39.838Z,68.44
2023-03-22T00:25:39.852Z,67.40
2023-03-22T00:26:39.854Z,67.30
2023-03-22T00:27:39.870Z,67.21
2023-03-22T00:28:39.865Z,67.49
2023-03-22T00:29:39.886Z,66.74
2023-03-22T00:30:40.232Z,66.74
2023-03-22T00:31:39.940Z,66.77
2023-03-22T00:32:39.907Z,66.16
2023-03-22T00:33:39.922Z,66.29
2023-03-22T00:34:39.925Z,66.39
2023-03-22T00:35:40.006Z,66.96
2023-03-22T00:36:39.933Z,66.93
2023-03-22T00:37:39.954Z,66.96
2023-03-22T00:38:44.195Z,66.29
2023-03-22T00:39:39.962Z,66.29
2023-03-22T00:40:40.405Z,66.86
2023-03-22T00:41:39.977Z,67.43
2023-03-22T00:42:39.984Z,67.49
2023-03-22T00:43:39.992Z,67.43
2023-03-22T00:44:40.008Z,67.52
2023-03-22T00:45:40.010Z,68.15
2023-03-22T00:46:40.022Z,67.62
2023-03-22T00:47:40.162Z,67.81
2023-03-22T00:48:40.029Z,68.10
2023-03-22T00:49:40.044Z,68.00
2023-03-22T00:50:40.621Z,68.19
2023-03-22T00:51:40.082Z,68.38
2023-03-22T00:52:40.077Z,67.58
2023-03-22T00:53:42.858Z,67.24
2023-03-22T00:54:40.079Z,66.77
2023-03-22T00:55:40.093Z,66.35
2023-03-22T00:56:40.106Z,65.97
2023-03-22T00:57:40.113Z,65.53
2023-03-22T00:58:40.121Z,64.84
2023-03-22T00:59:40.125Z,64.74
2023-03-22T01:00:40.578Z,64.27
2023-03-22T01:01:40.138Z,64.08
2023-03-22T01:02:40.142Z,63.70
2023-03-22T01:03:40.211Z,62.75
2023-03-22T01:04:40.162Z,63.04
2023-03-22T01:05:40.168Z,61.80
2023-03-22T01:06:40.172Z,61.24
2023-03-22T01:07:40.201Z,61.05
2023-03-22T01:08:40.186Z,60.86
2023-03-22T01:09:40.200Z,60.47
2023-03-22T01:10:40.524Z,59.72
2023-03-22T01:11:40.212Z,59.72
2023-03-22T01:12:40.217Z,59.72
2023-03-22T01:13:40.226Z,59.72
2023-03-22T01:14:40.231Z,59.72
2023-03-22T01:15:40.246Z,59.63
2023-03-22T01:16:40.326Z,60.47
2023-03-22T01:17:40.267Z,60.57
2023-03-22T01:18:40.261Z,60.10
2023-03-22T01:19:40.275Z,59.72
2023-03-22T01:20:40.681Z,59.34
2023-03-22T01:21:40.288Z,59.34
2023-03-22T01:22:40.293Z,59.44
2023-03-22T01:23:40.323Z,59.44
2023-03-22T01:24:40.312Z,59.56
2023-03-22T01:25:40.317Z,59.66
2023-03-22T01:26:40.322Z,59.75
2023-03-22T01:27:40.336Z,59.18
2023-03-22T01:28:40.340Z,59.18
2023-03-22T01:29:40.349Z,59.84
2023-03-22T01:30:40.708Z,60.03
2023-03-22T01:31:40.361Z,60.41
2023-03-22T01:32:40.412Z,60.76
2023-03-22T01:33:40.381Z,60.28
2023-03-22T01:34:40.410Z,60.41
2023-03-22T01:35:40.500Z,60.79
2023-03-22T01:36:40.406Z,60.70
2023-03-22T01:37:40.409Z,61.08
2023-03-22T01:38:40.414Z,60.31
2023-03-22T01:39:40.444Z,60.13
2023-03-22T01:40:40.725Z,60.50
2023-03-22T01:41:40.442Z,60.70
2023-03-22T01:42:40.445Z,61.24
2023-03-22T01:43:40.458Z,61.43
2023-03-22T01:44:40.458Z,61.99
2023-03-22T01:45:40.499Z,62.56
2023-03-22T01:46:40.519Z,62.69
2023-03-22T01:47:40.533Z,62.75
2023-03-22T01:48:40.524Z,63.13
2023-03-22T01:49:40.500Z,62.66
2023-03-22T01:50:40.736Z,63.51
2023-03-22T01:51:42.682Z,62.75
2023-03-22T01:52:40.526Z,62.66
2023-03-22T01:53:40.544Z,63.13
2023-03-22T01:54:40.541Z,63.42
2023-03-22T01:55:40.588Z,63.79
2023-03-22T01:56:40.551Z,64.08
2023-03-22T01:57:40.572Z,64.27
2023-03-22T01:58:40.572Z,63.89
2023-03-22T01:59:40.581Z,64.46
2023-03-22T02:00:41.002Z,65.22
2023-03-22T02:01:40.641Z,66.35
2023-03-22T02:02:40.647Z,67.30
2023-03-22T02:03:40.611Z,67.96
2023-03-22T02:04:40.617Z,68.44
2023-03-22T02:05:40.625Z,68.82
2023-03-22T02:06:40.629Z,69.29
2023-03-22T02:07:40.641Z,69.10
2023-03-22T02:08:40.641Z,68.91
2023-03-22T02:09:40.650Z,68.63
2023-03-22T02:10:40.939Z,68.91
2023-03-22T02:11:40.691Z,68.54
2023-03-22T02:12:40.678Z,68.25
2023-03-22T02:13:40.680Z,68.15
2023-03-22T02:14:40.690Z,68.63
2023-03-22T02:15:40.709Z,68.35
2023-03-22T02:16:40.708Z,68.44
2023-03-22T02:17:40.711Z,68.44
2023-03-22T02:18:40.716Z,68.44
2023-03-22T02:19:40.722Z,68.15
2023-03-22T02:20:41.317Z,67.58
2023-03-22T02:21:40.737Z,67.02
2023-03-22T02:22:40.749Z,66.35
2023-03-22T02:23:40.757Z,66.45
2023-03-22T02:24:43.100Z,66.26
2023-03-22T02:25:40.773Z,65.97
2023-03-22T02:26:40.776Z,65.88
2023-03-22T02:27:40.804Z,66.07
2023-03-22T02:28:40.783Z,66.74
2023-03-22T02:29:40.797Z,67.87
2023-03-22T02:30:41.196Z,68.44
2023-03-22T02:31:40.812Z,68.82
2023-03-22T02:32:40.815Z,68.82
2023-03-22T02:33:41.730Z,69.38
2023-03-22T02:34:40.883Z,69.57
2023-03-22T02:35:40.861Z,69.10
2023-03-22T02:36:40.866Z,69.20
2023-03-22T02:37:40.869Z,69.20
2023-03-22T02:38:40.859Z,69.57
2023-03-22T02:39:40.870Z,69.35
2023-03-22T02:40:41.204Z,69.54
2023-03-22T02:41:40.885Z,69.73
2023-03-22T02:42:40.888Z,70.01
2023-03-22T02:43:40.922Z,69.82
2023-03-22T02:44:40.904Z,68.98
2023-03-22T02:45:40.916Z,68.88
2023-03-22T02:46:40.933Z,68.12
2023-03-22T02:47:40.984Z,67.65
2023-03-22T02:48:40.930Z,67.46
2023-03-22T02:49:40.938Z,66.89
2023-03-22T02:50:41.094Z,66.74
2023-03-22T02:51:40.959Z,67.49
2023-03-22T02:52:40.965Z,67.02
2023-03-22T02:53:40.977Z,67.30
2023-03-22T02:54:42.802Z,67.55
2023-03-22T02:55:40.982Z,67.30
2023-03-22T02:56:40.988Z,67.36
2023-03-22T02:57:40.997Z,67.46
2023-03-22T02:58:41.000Z,67.55
2023-03-22T02:59:41.066Z,67.36
2023-03-22T03:00:41.428Z,67.46
2023-03-22T03:01:41.098Z,66.80
2023-03-22T03:02:41.032Z,66.32
2023-03-22T03:03:41.040Z,65.94
2023-03-22T03:04:41.042Z,65.84
2023-03-22T03:05:41.054Z,65.56
2023-03-22T03:06:41.058Z,65.00
2023-03-22T03:07:41.070Z,65.19
2023-03-22T03:08:41.083Z,64.71
2023-03-22T03:09:41.089Z,64.71
2023-03-22T03:10:41.688Z,64.42
2023-03-22T03:11:41.096Z,64.46
2023-03-22T03:12:41.110Z,64.27
2023-03-22T03:13:41.108Z,64.74
2023-03-22T03:14:41.118Z,65.03
2023-03-22T03:15:41.147Z,64.84
2023-03-22T03:16:41.218Z,64.93
2023-03-22T03:17:41.135Z,65.22
2023-03-22T03:18:41.152Z,65.12
2023-03-22T03:19:41.149Z,65.31
2023-03-22T03:20:41.385Z,65.12
2023-03-22T03:21:41.167Z,65.41
2023-03-22T03:22:41.173Z,65.22
2023-03-22T03:23:41.186Z,65.31
2023-03-22T03:24:41.191Z,65.69
2023-03-22T03:25:41.194Z,65.69
2023-03-22T03:26:41.209Z,65.97
2023-03-22T03:27:41.207Z,66.16
2023-03-22T03:28:41.217Z,66.41
2023-03-22T03:29:41.235Z,66.64
2023-03-22T03:30:41.392Z,66.41
2023-03-22T03:31:41.353Z,66.51
2023-03-22T03:32:41.250Z,67.27
2023-03-22T03:33:41.254Z,66.99
2023-03-22T03:34:41.261Z,66.60
2023-03-22T03:35:41.386Z,66.41
2023-03-22T03:36:41.275Z,66.41
2023-03-22T03:37:41.282Z,66.32
2023-03-22T03:38:41.289Z,66.80
2023-03-22T03:39:41.296Z,67.27
2023-03-22T03:40:41.591Z,67.27
2023-03-22T03:41:41.318Z,66.99
2023-03-22T03:42:41.339Z,66.70
2023-03-22T03:43:41.325Z,66.80
2023-03-22T03:44:41.336Z,67.27
2023-03-22T03:45:41.400Z,67.27
2023-03-22T03:46:41.351Z,67.65
2023-03-22T03:47:41.456Z,67.36
2023-03-22T03:48:41.362Z,67.27
2023-03-22T03:49:41.367Z,67.36
2023-03-22T03:50:41.787Z,67.36
2023-03-22T03:51:41.412Z,67.36
2023-03-22T03:52:41.409Z,67.18
2023-03-22T03:53:41.395Z,66.70
2023-03-22T03:54:41.406Z,67.08
2023-03-22T03:55:41.411Z,66.99
2023-03-22T03:56:41.428Z,67.36
2023-03-22T03:57:41.422Z,66.99
2023-03-22T03:58:41.433Z,67.36
2023-03-22T03:59:41.438Z,67.46
2023-03-22T04:00:41.762Z,67.36
2023-03-22T04:01:41.453Z,66.89
2023-03-22T04:02:41.495Z,67.18
2023-03-22T04:03:41.508Z,67.27
2023-03-22T04:04:41.545Z,67.27
2023-03-22T04:05:41.496Z,67.36
2023-03-22T04:06:41.494Z,66.89
2023-03-22T04:07:41.496Z,66.89
2023-03-22T04:08:41.541Z,67.08
2023-03-22T04:09:41.518Z,66.80
2023-03-22T04:10:41.721Z,67.08
2023-03-22T04:11:41.523Z,66.32
2023-03-22T04:12:41.533Z,66.03
2023-03-22T04:13:41.542Z,65.94
2023-03-22T04:14:41.550Z,65.84
2023-03-22T04:15:41.552Z,65.94
2023-03-22T04:16:41.616Z,65.66
2023-03-22T04:17:41.566Z,65.47
2023-03-22T04:18:41.579Z,65.75
2023-03-22T04:19:41.603Z,65.84
2023-03-22T04:20:41.887Z,65.94
2023-03-22T04:21:41.598Z,66.03
2023-03-22T04:22:41.625Z,65.75
2023-03-22T04:23:41.608Z,66.03
2023-03-22T04:24:41.638Z,66.03
2023-03-22T04:25:41.634Z,65.94
2023-03-22T04:26:41.635Z,66.22
2023-03-22T04:27:41.642Z,65.94
2023-03-22T04:28:41.649Z,66.41
2023-03-22T04:29:41.665Z,66.03
2023-03-22T04:30:42.094Z,65.84
2023-03-22T04:31:41.683Z,65.19
2023-03-22T04:32:41.671Z,65.19
2023-03-22T04:33:41.688Z,64.90
2023-03-22T04:34:41.689Z,65.56
2023-03-22T04:35:41.744Z,65.28
2023-03-22T04:36:41.716Z,65.09
2023-03-22T04:37:41.706Z,64.90
2023-03-22T04:38:41.714Z,65.56
2023-03-22T04:39:41.716Z,66.22
2023-03-22T04:40:42.208Z,66.22
2023-03-22T04:41:41.748Z,65.84
2023-03-22T04:42:41.752Z,65.84
2023-03-22T04:43:41.751Z,65.94
2023-03-22T04:44:41.755Z,65.56
2023-03-22T04:45:41.758Z,65.09
2023-03-22T04:46:41.876Z,65.47
2023-03-22T04:47:41.836Z,66.03
2023-03-22T04:48:41.785Z,66.32
2023-03-22T04:49:41.786Z,66.70
2023-03-22T04:50:42.087Z,66.99
2023-03-22T04:51:41.830Z,67.46
2023-03-22T04:52:41.810Z,67.27
2023-03-22T04:53:41.817Z,67.27
2023-03-22T04:54:41.832Z,67.27
2023-03-22T04:55:41.836Z,67.74
2023-03-22T04:56:41.858Z,68.12
2023-03-22T04:57:41.841Z,67.74
2023-03-22T04:58:41.855Z,68.12
2023-03-22T04:59:41.860Z,67.83
2023-03-22T05:00:42.205Z,67.93
2023-03-22T05:01:41.901Z,67.93
2023-03-22T05:02:41.959Z,68.02
2023-03-22T05:03:41.885Z,68.31
2023-03-22T05:04:41.893Z,68.79
2023-03-22T05:05:41.898Z,69.26
2023-03-22T05:06:41.909Z,69.17
2023-03-22T05:07:41.938Z,69.35
2023-03-22T05:08:41.929Z,69.92
2023-03-22T05:09:41.932Z,69.92
2023-03-22T05:10:42.221Z,69.92
2023-03-22T05:11:41.940Z,70.11
2023-03-22T05:12:41.951Z,70.20
2023-03-22T05:13:41.956Z,70.11
2023-03-22T05:14:42.009Z,70.68
2023-03-22T05:15:42.024Z,70.68
2023-03-22T05:16:41.976Z,70.58
2023-03-22T05:17:41.985Z,70.49
2023-03-22T05:18:41.995Z,70.30
2023-03-22T05:19:41.996Z,70.78
2023-03-22T05:20:42.352Z,70.58
2023-03-22T05:21:42.018Z,70.58
2023-03-22T05:22:42.034Z,71.53
2023-03-22T05:23:42.054Z,72.00
2023-03-22T05:24:42.045Z,72.57
2023-03-22T05:25:42.046Z,72.57
2023-03-22T05:26:42.057Z,72.10
2023-03-22T05:27:42.080Z,71.44
2023-03-22T05:28:42.063Z,71.25
2023-03-22T05:29:42.075Z,71.44
2023-03-22T05:30:42.077Z,71.62
2023-03-22T05:31:42.111Z,71.53
2023-03-22T05:32:42.093Z,71.25
2023-03-22T05:33:42.094Z,71.06
2023-03-22T05:34:42.106Z,71.06
2023-03-22T05:35:42.143Z,70.58
2023-03-22T05:36:42.133Z,69.92
2023-03-22T05:37:42.123Z,69.73
2023-03-22T05:38:42.138Z,70.49
2023-03-22T05:39:42.167Z,70.97
2023-03-22T05:40:42.259Z,70.87
2023-03-22T05:41:42.165Z,71.25
2023-03-22T05:42:42.166Z,70.68
2023-03-22T05:43:42.167Z,70.30
2023-03-22T05:44:42.179Z,70.39
2023-03-22T05:45:42.182Z,70.78
2023-03-22T05:46:42.280Z,70.58
2023-03-22T05:47:42.289Z,70.30
2023-03-22T05:48:42.210Z,69.82
2023-03-22T05:49:42.213Z,69.07
2023-03-22T05:50:42.222Z,67.46
2023-03-22T05:51:42.250Z,66.32
2023-03-22T05:52:42.237Z,65.09
2023-03-22T05:53:42.312Z,64.90
2023-03-22T05:54:42.252Z,64.71
2023-03-22T05:55:42.279Z,64.14
2023-03-22T05:56:42.271Z,63.67
2023-03-22T05:57:42.271Z,62.91
2023-03-22T05:58:42.293Z,62.82
2023-03-22T05:59:42.285Z,63.57
2023-03-22T06:00:42.448Z,63.57
2023-03-22T06:01:42.360Z,63.20
2023-03-22T06:02:42.353Z,63.85
2023-03-22T06:03:42.318Z,63.85
2023-03-22T06:04:42.332Z,63.95
2023-03-22T06:05:42.334Z,63.29
2023-03-22T06:06:42.350Z,63.29
2023-03-22T06:07:42.335Z,62.91
2023-03-22T06:08:42.351Z,62.82
2023-03-22T06:09:42.353Z,63.01
2023-03-22T06:10:42.809Z,62.91
2023-03-22T06:11:42.387Z,63.57
2023-03-22T06:12:42.377Z,63.48
2023-03-22T06:13:42.384Z,63.39
2023-03-22T06:14:42.395Z,63.01
2023-03-22T06:15:42.393Z,62.82
2023-03-22T06:16:42.465Z,63.20
2023-03-22T06:17:42.418Z,62.91
2023-03-22T06:18:42.424Z,63.01
2023-03-22T06:19:42.427Z,62.91
2023-03-22T06:20:42.521Z,63.20
2023-03-22T06:21:42.438Z,63.39
2023-03-22T06:22:42.444Z,62.91
2023-03-22T06:23:42.449Z,62.72
2023-03-22T06:24:42.460Z,63.20
2023-03-22T06:25:42.463Z,64.14
2023-03-22T06:26:42.480Z,64.52
2023-03-22T06:27:42.501Z,65.00
2023-03-22T06:28:42.494Z,65.47
2023-03-22T06:29:42.499Z,65.37
2023-03-22T06:30:42.729Z,65.84
2023-03-22T06:31:42.498Z,65.56
2023-03-22T06:32:42.523Z,65.66
2023-03-22T06:33:42.513Z,65.56
2023-03-22T06:34:42.521Z,65.19
2023-03-22T06:35:42.561Z,65.19
2023-03-22T06:36:42.536Z,64.90
2023-03-22T06:37:42.537Z,64.71
2023-03-22T06:38:42.557Z,64.81
2023-03-22T06:39:42.555Z,64.42
2023-03-22T06:40:42.675Z,64.71
2023-03-22T06:41:42.565Z,64.23
2023-03-22T06:42:42.571Z,63.76
2023-03-22T06:43:42.599Z,63.39
2023-03-22T06:44:42.587Z,63.29
2023-03-22T06:45:42.657Z,63.57
2023-03-22T06:46:42.608Z,63.39
2023-03-22T06:47:42.716Z,63.85
2023-03-22T06:48:42.648Z,63.76
2023-03-22T06:49:42.673Z,63.67
2023-03-22T06:50:44.344Z,63.76
2023-03-22T06:51:42.655Z,63.29
2023-03-22T06:52:42.658Z,63.76
2023-03-22T06:53:42.647Z,63.20
2023-03-22T06:54:42.662Z,63.39
2023-03-22T06:55:42.687Z,62.91
2023-03-22T06:56:42.671Z,62.47
2023-03-22T06:57:42.676Z,61.96
2023-03-22T06:58:42.730Z,62.53
2023-03-22T06:59:42.737Z,62.66
2023-03-22T07:00:42.712Z,63.04
2023-03-22T07:01:42.860Z,63.23
2023-03-22T07:02:42.737Z,61.80
2023-03-22T07:03:42.716Z,60.28
2023-03-22T07:04:42.850Z,59.72
2023-03-22T07:05:42.767Z,59.53
2023-03-22T07:06:42.766Z,59.34
2023-03-22T07:07:42.768Z,59.34
2023-03-22T07:08:42.752Z,59.44
2023-03-22T07:09:42.780Z,58.99
2023-03-22T07:10:42.775Z,59.27
2023-03-22T07:11:42.881Z,58.89
2023-03-22T07:12:42.781Z,58.14
2023-03-22T07:13:42.824Z,59.37
2023-03-22T07:14:42.799Z,59.84
2023-03-22T07:15:42.862Z,60.41
2023-03-22T07:16:42.812Z,60.79
2023-03-22T07:17:42.819Z,61.55
2023-03-22T07:18:42.824Z,61.55
2023-03-22T07:19:42.852Z,61.08
2023-03-22T07:20:42.907Z,60.70
2023-03-22T07:21:42.845Z,61.87
2023-03-22T07:22:42.856Z,61.20
2023-03-22T07:23:42.860Z,61.11
2023-03-22T07:24:54.069Z,60.06
2023-03-22T07:25:42.876Z,59.68
2023-03-22T07:26:42.883Z,59.11
2023-03-22T07:27:42.892Z,59.02
2023-03-22T07:28:42.897Z,59.30
2023-03-22T07:29:42.908Z,59.68
2023-03-22T07:30:43.012Z,60.53
2023-03-22T07:31:42.945Z,60.25
2023-03-22T07:32:42.949Z,59.91
2023-03-22T07:33:42.939Z,59.33
2023-03-22T07:34:42.940Z,59.14
2023-03-22T07:35:42.965Z,59.24
2023-03-22T07:36:42.978Z,58.86
2023-03-22T07:37:42.967Z,57.15
2023-03-22T07:38:42.972Z,58.95
2023-03-22T07:39:42.993Z,59.05
2023-03-22T07:40:42.992Z,58.67
2023-03-22T07:41:43.004Z,59.05
2023-03-22T07:42:43.008Z,58.86
2023-03-22T07:43:54.063Z,59.14
2023-03-22T07:44:43.024Z,59.62
2023-03-22T07:45:43.035Z,60.10
2023-03-22T07:46:43.054Z,59.93
2023-03-22T07:47:43.139Z,59.33
2023-03-22T07:48:43.054Z,59.43
2023-03-22T07:49:43.067Z,59.24
2023-03-22T07:50:43.081Z,59.14
2023-03-22T07:51:43.082Z,59.81
2023-03-22T07:52:43.091Z,61.26
2023-03-22T07:53:43.113Z,58.67
2023-03-22T07:54:43.103Z,58.13
2023-03-22T07:55:43.117Z,58.22
2023-03-22T07:56:43.117Z,57.84
2023-03-22T07:57:43.135Z,57.84
2023-03-22T07:58:43.177Z,56.87
2023-03-22T07:59:43.144Z,57.09
2023-03-22T08:00:43.151Z,56.96
2023-03-22T08:01:43.190Z,57.24
2023-03-22T08:02:43.180Z,57.53
2023-03-22T08:03:43.206Z,58.98
2023-03-22T08:04:43.186Z,58.98
2023-03-22T08:05:43.193Z,57.75
2023-03-22T08:06:43.201Z,57.28
2023-03-22T08:07:43.210Z,57.06
2023-03-22T08:08:43.214Z,59.55
2023-03-22T08:09:43.228Z,58.51
2023-03-22T08:10:43.240Z,59.17
2023-03-22T08:11:43.244Z,59.36
2023-03-22T08:12:43.252Z,60.13
2023-03-22T08:13:43.257Z,60.35
2023-03-22T08:14:43.262Z,60.25
2023-03-22T08:15:43.326Z,59.58
2023-03-22T08:16:43.390Z,58.06
2023-03-22T08:17:43.305Z,57.87
2023-03-22T08:18:45.026Z,57.78
2023-03-22T08:19:43.330Z,56.35
2023-03-22T08:20:43.312Z,56.45
2023-03-22T08:21:43.325Z,57.97
2023-03-22T08:22:43.337Z,59.11
2023-03-22T08:23:43.340Z,59.39
2023-03-22T08:24:43.355Z,59.68
2023-03-22T08:25:43.366Z,60.85
2023-03-22T08:26:43.360Z,59.52
2023-03-22T08:27:43.378Z,58.95
2023-03-22T08:28:43.381Z,57.90
2023-03-22T08:29:43.391Z,58.28
2023-03-22T08:30:43.401Z,57.11
2023-03-22T08:31:43.481Z,56.54
2023-03-22T08:32:43.422Z,57.11
2023-03-22T08:33:43.431Z,56.89
2023-03-22T08:34:43.434Z,58.32
2023-03-22T08:35:43.512Z,57.84
2023-03-22T08:36:43.449Z,58.44
2023-03-22T08:37:43.459Z,58.73
2023-03-22T08:38:43.465Z,59.49
2023-03-22T08:39:43.485Z,58.92
2023-03-22T08:40:43.564Z,57.71
2023-03-22T08:41:43.495Z,59.14
2023-03-22T08:42:43.499Z,58.66
2023-03-22T08:43:43.533Z,57.52
2023-03-22T08:44:43.524Z,57.90
2023-03-22T08:45:43.871Z,56.38
2023-03-22T08:46:43.544Z,56.29
2023-03-22T08:47:43.613Z,56.95
2023-03-22T08:48:43.548Z,56.95
2023-03-22T08:49:43.566Z,55.52
2023-03-22T08:50:43.568Z,56.57
2023-03-22T08:51:43.604Z,57.26
2023-03-22T08:52:43.588Z,56.98
2023-03-22T08:53:43.599Z,57.26
2023-03-22T08:54:43.602Z,56.60
2023-03-22T08:55:43.613Z,55.46
2023-03-22T08:56:43.622Z,56.51
2023-03-22T08:57:43.631Z,58.31
2023-03-22T08:58:43.638Z,57.26
2023-03-22T08:59:43.650Z,56.22
2023-03-22T09:00:48.897Z,56.88
2023-03-22T09:01:43.817Z,56.51
2023-03-22T09:02:43.673Z,56.41
2023-03-22T09:03:43.691Z,57.74
2023-03-22T09:04:43.728Z,57.17
2023-03-22T09:05:43.717Z,57.67
2023-03-22T09:06:43.710Z,57.20
2023-03-22T09:07:43.743Z,57.58
2023-03-22T09:08:43.728Z,58.15
2023-03-22T09:09:43.742Z,59.77
2023-03-22T09:10:43.752Z,57.29
2023-03-22T09:11:43.762Z,56.34
2023-03-22T09:12:43.766Z,58.34
2023-03-22T09:13:43.778Z,58.06
2023-03-22T09:14:43.793Z,57.77
2023-03-22T09:15:44.191Z,57.10
2023-03-22T09:16:43.818Z,56.34
2023-03-22T09:17:43.823Z,55.58
2023-03-22T09:18:43.840Z,55.36
2023-03-22T09:19:43.843Z,55.36
2023-03-22T09:20:43.843Z,55.46
2023-03-22T09:21:43.913Z,55.27
2023-03-22T09:22:43.867Z,56.03
2023-03-22T09:23:43.903Z,59.29
2023-03-22T09:24:43.884Z,56.72
2023-03-22T09:25:43.894Z,56.44
2023-03-22T09:26:43.911Z,56.44
2023-03-22T09:27:43.920Z,56.31
2023-03-22T09:28:43.974Z,56.12
2023-03-22T09:29:43.943Z,57.26
2023-03-22T09:30:44.026Z,58.62
2023-03-22T09:31:43.969Z,59.23
2023-03-22T09:32:43.963Z,56.94
2023-03-22T09:33:43.981Z,56.27
2023-03-22T09:34:43.984Z,55.77
2023-03-22T09:35:44.078Z,55.49
2023-03-22T09:36:44.003Z,56.44
2023-03-22T09:37:44.013Z,56.82
2023-03-22T09:38:44.023Z,55.58
2023-03-22T09:39:44.058Z,54.82
2023-03-22T09:40:44.040Z,56.15
2023-03-22T09:41:44.057Z,56.92
2023-03-22T09:42:44.062Z,56.94
2023-03-22T09:43:44.099Z,56.65
2023-03-22T09:44:44.082Z,55.20
2023-03-22T09:45:44.120Z,57.04
2023-03-22T09:46:44.142Z,57.23
2023-03-22T09:47:45.502Z,57.26
2023-03-22T09:48:44.124Z,55.90
2023-03-22T09:49:53.323Z,55.99
2023-03-22T09:50:44.145Z,56.27
2023-03-22T09:51:44.157Z,55.80
2023-03-22T09:52:44.161Z,57.07
2023-03-22T09:53:44.181Z,54.85
2023-03-22T09:54:44.184Z,57.54
2023-03-22T09:55:44.219Z,55.83
2023-03-22T09:56:44.204Z,55.42
2023-03-22T09:57:44.216Z,56.18
2023-03-22T09:58:44.297Z,56.37
2023-03-22T09:59:44.238Z,56.97
2023-03-22T10:00:44.430Z,57.16
2023-03-22T10:01:44.566Z,56.11
2023-03-22T10:02:44.317Z,58.11
2023-03-22T10:03:44.285Z,57.86
2023-03-22T10:04:44.295Z,57.28
2023-03-22T10:05:44.311Z,54.49
2023-03-22T10:06:44.316Z,54.66
2023-03-22T10:07:44.329Z,56.94
2023-03-22T10:08:44.332Z,57.92
2023-03-22T10:09:44.344Z,56.52
2023-03-22T10:10:44.361Z,55.85
2023-03-22T10:11:45.907Z,54.33
2023-03-22T10:12:44.387Z,52.30
2023-03-22T10:13:44.389Z,55.47
2023-03-22T10:14:44.399Z,54.80
2023-03-22T10:15:44.425Z,53.73
2023-03-22T10:16:44.423Z,53.64
2023-03-22T10:17:44.436Z,53.92
2023-03-22T10:18:44.445Z,53.16
2023-03-22T10:19:44.458Z,54.59
2023-03-22T10:20:44.465Z,53.92
2023-03-22T10:21:44.487Z,51.23
2023-03-22T10:22:44.488Z,53.73
2023-03-22T10:23:44.513Z,54.14
2023-03-22T10:24:44.512Z,56.26
2023-03-22T10:25:44.545Z,54.14
2023-03-22T10:26:44.538Z,53.19
2023-03-22T10:27:44.618Z,56.07
2023-03-22T10:28:44.554Z,56.46
2023-03-22T10:29:44.573Z,53.78
2023-03-22T10:30:44.579Z,54.26
2023-03-22T10:31:44.712Z,51.95
2023-03-22T10:32:56.846Z,53.19
2023-03-22T10:33:44.617Z,54.17
2023-03-22T10:34:44.632Z,51.47
2023-03-22T10:35:44.672Z,51.95
2023-03-22T10:36:44.661Z,53.35
2023-03-22T10:37:44.662Z,55.44
2023-03-22T10:38:44.672Z,55.57
2023-03-22T10:39:44.696Z,55.02
2023-03-22T10:40:44.706Z,54.64
2023-03-22T10:41:44.711Z,53.88
2023-03-22T10:42:44.718Z,53.02
2023-03-22T10:43:44.767Z,54.52
2023-03-22T10:44:44.751Z,55.76
2023-03-22T10:45:44.756Z,57.79
2023-03-22T10:46:44.878Z,55.98
2023-03-22T10:47:44.859Z,55.47
2023-03-22T10:48:44.802Z,55.31
2023-03-22T10:49:44.805Z,53.64
2023-03-22T10:50:44.847Z,55.57
2023-03-22T10:51:44.830Z,56.52
2023-03-22T10:52:44.839Z,56.93
2023-03-22T10:53:44.855Z,55.21
2023-03-22T10:54:44.870Z,53.69
2023-03-22T10:55:44.879Z,52.14
2023-03-22T10:56:45.908Z,52.14
2023-03-22T10:57:44.905Z,53.85
2023-03-22T10:58:44.916Z,53.76
2023-03-22T10:59:44.949Z,54.36
2023-03-22T11:00:45.064Z,52.26
2023-03-22T11:01:45.138Z,51.97
2023-03-22T11:02:44.992Z,51.02
2023-03-22T11:03:44.982Z,51.40
2023-03-22T11:04:44.985Z,50.63
2023-03-22T11:05:45.005Z,50.63
2023-03-22T11:06:45.015Z,49.90
2023-03-22T11:07:45.048Z,48.47
2023-03-22T11:08:45.064Z,48.37
2023-03-22T11:09:45.051Z,47.89
2023-03-22T11:10:45.126Z,48.28
2023-03-22T11:11:45.072Z,47.52
2023-03-22T11:12:45.087Z,50.69
2023-03-22T11:13:45.109Z,49.64
2023-03-22T11:14:45.114Z,49.62
2023-03-22T11:15:45.163Z,49.73
2023-03-22T11:16:45.228Z,48.08
2023-03-22T11:17:45.177Z,49.44
2023-03-22T11:18:45.155Z,47.82
2023-03-22T11:19:45.175Z,47.94
2023-03-22T11:20:45.198Z,45.84
2023-03-22T11:21:45.196Z,46.42
2023-03-22T11:22:45.210Z,46.30
2023-03-22T11:23:45.231Z,50.62
2023-03-22T11:24:45.243Z,51.60
2023-03-22T11:25:45.245Z,49.33
2023-03-22T11:26:45.259Z,47.89
2023-03-22T11:27:45.272Z,45.15
2023-03-22T11:28:45.282Z,45.72
2023-03-22T11:29:45.301Z,42.18
2023-03-22T11:30:45.311Z,47.08
2023-03-22T11:31:45.445Z,45.81
2023-03-22T11:32:45.350Z,46.08
2023-03-22T11:33:45.358Z,45.70
2023-03-22T11:34:45.369Z,46.17
2023-03-22T11:35:45.457Z,47.25
2023-03-22T11:36:45.411Z,46.20
2023-03-22T11:37:45.408Z,45.62
2023-03-22T11:38:46.367Z,47.16
2023-03-22T11:39:45.437Z,46.98
2023-03-22T11:40:45.457Z,43.52
2023-03-22T11:41:45.458Z,47.18
2023-03-22T11:42:45.480Z,47.18
2023-03-22T11:43:45.487Z,46.12
2023-03-22T11:44:45.503Z,42.40
2023-03-22T11:45:45.647Z,41.53
2023-03-22T11:46:45.530Z,42.56
2023-03-22T11:47:45.686Z,44.07
2023-03-22T11:48:45.711Z,45.12
2023-03-22T11:49:45.576Z,48.18
2023-03-22T11:50:45.595Z,44.79
2023-03-22T11:51:45.619Z,46.15
2023-03-22T11:52:45.617Z,43.76
2023-03-22T11:53:45.653Z,45.48
2023-03-22T11:54:45.663Z,46.94
2023-03-22T11:55:45.660Z,45.79
2023-03-22T11:56:45.678Z,46.27
2023-03-22T11:57:45.699Z,44.93
2023-03-22T11:58:45.704Z,44.84
2023-03-22T11:59:45.715Z,43.76
2023-03-22T12:00:45.736Z,45.67
2023-03-22T12:01:45.745Z,47.01
2023-03-22T12:02:45.927Z,45.56
2023-03-22T12:03:45.917Z,44.02
2023-03-22T12:04:45.872Z,44.51
2023-03-22T12:05:45.892Z,44.89
2023-03-22T12:06:45.827Z,44.79
2023-03-22T12:07:45.829Z,47.18
2023-03-22T12:08:45.848Z,47.87
2023-03-22T12:09:45.857Z,45.58
2023-03-22T12:10:45.891Z,43.30
2023-03-22T12:11:45.894Z,42.43
2023-03-22T12:12:45.908Z,43.19
2023-03-22T12:13:45.925Z,45.10
2023-03-22T12:14:45.935Z,46.15
2023-03-22T12:15:46.401Z,43.50
2023-03-22T12:16:46.075Z,41.95
2023-03-22T12:17:46.042Z,43.66
2023-03-22T12:18:45.996Z,43.38
2023-03-22T12:19:46.027Z,42.31
2023-03-22T12:20:46.027Z,42.67
2023-03-22T12:21:46.033Z,43.36
2023-03-22T12:22:46.074Z,42.19
2023-03-22T12:23:46.058Z,42.67
2023-03-22T12:24:46.081Z,43.53
2023-03-22T12:25:46.089Z,43.17
2023-03-22T12:26:46.106Z,42.31
2023-03-22T12:27:46.118Z,41.35
2023-03-22T12:28:46.133Z,41.85
2023-03-22T12:29:46.159Z,42.35
2023-03-22T12:30:46.163Z,42.93
2023-03-22T12:31:46.260Z,43.23
2023-03-22T12:32:46.268Z,40.55
2023-03-22T12:33:46.212Z,39.98
2023-03-22T12:34:46.228Z,41.61
2023-03-22T12:35:46.311Z,40.00
2023-03-22T12:36:46.252Z,38.07
2023-03-22T12:37:46.264Z,39.43
2023-03-22T12:38:46.311Z,40.95
2023-03-22T12:39:46.292Z,39.23
2023-03-22T12:40:46.323Z,39.33
2023-03-22T12:41:46.322Z,38.18
2023-03-22T12:42:51.206Z,36.06
2023-03-22T12:43:46.367Z,36.23
2023-03-22T12:44:52.784Z,39.72
2023-03-22T12:45:46.384Z,38.76
2023-03-22T12:46:46.567Z,38.43
2023-03-22T12:47:46.454Z,37.26
2023-03-22T12:48:46.785Z,38.43
2023-03-22T12:49:46.442Z,36.39
2023-03-22T12:50:46.459Z,37.07
2023-03-22T12:51:46.497Z,39.48
2023-03-22T12:52:46.489Z,37.95